Batiscan, Canada
Current Conditions -  °F | °C
As of 10:42 AM on Saturday 20 Dec 2014 (Local Time) from CYRQ Reporting Station
Light Snow Light Snow  
Wind Chill: -2°   Ceiling: 300
Heat Index: 10°   Visibility: 3mi
Dew Point:   Wind: 8mph
Humidity: 92%   Direction: 40°NE
Pressure: 30.38"   Gusts: NA
Location:  46.5°N, 72.25°W
Report Text: CYRQ 201542Z AUTO 04007KT 3SM -SN OVC003 M12/M13 A3038 RMK SLP292
Loading
Personal Weather Stations






























Interactive Weather Map New forecast layout! Learn more

10-Day Weather Forecast

Advertisements
Track Severe Weather on mobile